Time;durP1;ratioP1;P1;durP2;ratioP2;P2;SDS_P1;SDS_P2;PMS_P1;PMS_P2;Temp;Humidity;BMP_temperature;BMP_pressure;BME280_temperature;BME280_humidity;BME280_pressure;Samples;Min_cycle;Max_cycle;Signal;HPM_P1;HPM_P2
2021/05/04 00:01:53;;;;;;;5.60;2.00;;;;;;;7.81;55.81;99370.78;1674090;83;21267;-81
2021/05/04 00:04:20;;;;;;;6.60;2.10;;;;;;;7.79;55.63;99368.03;1724157;83;21599;-77
2021/05/04 00:06:48;;;;;;;6.87;1.72;;;;;;;7.78;55.21;99370.45;1708309;82;21168;-77
2021/05/04 00:09:16;;;;;;;2.50;1.30;;;;;;;7.74;55.00;99368.79;1691301;83;21280;-77
2021/05/04 00:11:46;;;;;;;5.65;1.95;;;;;;;7.72;54.73;99379.62;1720171;82;21950;-76
2021/05/04 00:14:14;;;;;;;3.67;1.63;;;;;;;7.68;54.66;99380.67;1716935;83;21128;-80
2021/05/04 00:16:44;;;;;;;3.90;1.55;;;;;;;7.61;54.63;99381.40;1720443;83;21640;-80
2021/05/04 00:19:13;;;;;;;5.75;1.50;;;;;;;7.55;54.64;99374.22;1717285;82;21183;-80
2021/05/04 00:21:42;;;;;;;4.55;1.60;;;;;;;7.52;55.06;99376.08;1717288;83;21171;-81
2021/05/04 00:24:10;;;;;;;4.40;1.62;;;;;;;7.48;54.92;99380.38;1719833;82;21259;-81
2021/05/04 00:26:38;;;;;;;5.35;1.95;;;;;;;7.42;54.82;99380.00;1720233;83;21687;-74
2021/05/04 00:29:06;;;;;;;3.85;1.62;;;;;;;7.39;55.12;99373.69;1710046;83;21169;-75
2021/05/04 00:31:34;;;;;;;4.78;1.90;;;;;;;7.33;55.33;99378.80;1723008;83;21728;-81
2021/05/04 00:34:03;;;;;;;4.67;1.70;;;;;;;7.30;55.10;99387.45;1706004;83;21260;-76
2021/05/04 00:36:30;;;;;;;4.70;1.67;;;;;;;7.27;55.16;99394.21;1724025;83;21294;-80
2021/05/04 00:38:58;;;;;;;4.15;1.67;;;;;;;7.25;54.83;99395.00;1708343;83;21185;-79
2021/05/04 00:41:26;;;;;;;5.08;1.50;;;;;;;7.23;54.73;99401.23;1724874;83;21151;-78
2021/05/04 00:43:55;;;;;;;4.45;1.60;;;;;;;7.19;54.66;99388.34;1720149;82;21148;-75
2021/05/04 00:46:23;;;;;;;3.90;1.85;;;;;;;7.17;54.63;99394.58;1753771;82;21152;-76
2021/05/04 00:48:51;;;;;;;5.92;1.60;;;;;;;7.16;54.68;99394.31;1750364;82;21211;-78
2021/05/04 00:51:20;;;;;;;4.50;1.67;;;;;;;7.13;54.58;99392.08;1673086;86;21315;-76
2021/05/04 00:53:48;;;;;;;7.25;1.75;;;;;;;7.11;54.76;99391.50;1672924;86;21262;-73
2021/05/04 00:56:18;;;;;;;3.75;1.70;;;;;;;7.11;54.90;99394.23;1673406;82;21659;-75
2021/05/04 00:58:48;;;;;;;4.10;1.70;;;;;;;7.10;54.97;99396.64;1644422;86;21211;-79
2021/05/04 01:01:16;;;;;;;5.30;1.82;;;;;;;7.08;55.41;99400.16;1692764;82;21189;-75
2021/05/04 01:03:44;;;;;;;5.45;1.90;;;;;;;7.08;55.32;99405.59;1691831;85;21203;-76
2021/05/04 01:06:12;;;;;;;4.25;1.77;;;;;;;7.05;55.52;99404.20;1663588;85;21202;-77
2021/05/04 01:08:40;;;;;;;;;;;;;;;7.03;55.41;99402.27;1715936;84;21153;-77
2021/05/04 01:11:08;;;;;;;3.72;1.75;;;;;;;7.00;55.85;99402.22;1721594;82;20198;-78
2021/05/04 01:13:37;;;;;;;5.42;1.85;;;;;;;6.97;55.71;99404.59;1690094;84;21196;-78
2021/05/04 01:16:05;;;;;;;4.17;1.62;;;;;;;6.93;55.76;99402.89;1691899;83;21195;-77
2021/05/04 01:18:33;;;;;;;3.27;1.40;;;;;;;6.89;55.56;99399.02;1695244;83;21266;-78
2021/05/04 01:21:01;;;;;;;5.12;1.80;;;;;;;6.81;56.14;99403.49;1694360;83;21140;-77
2021/05/04 01:23:29;;;;;;;;;;;;;;;6.81;56.14;99403.49;1716146;84;21620;-77
2021/05/04 01:25:58;;;;;;;8.28;1.70;;;;;;;6.79;55.84;99400.73;1711347;82;20239;-79
2021/05/04 01:28:26;;;;;;;5.28;1.70;;;;;;;6.76;56.04;99415.64;1689431;84;21644;-76
2021/05/04 01:30:54;;;;;;;4.53;1.92;;;;;;;6.71;56.40;99420.98;1720519;83;21188;-80
2021/05/04 01:33:22;;;;;;;6.10;1.62;;;;;;;6.67;56.29;99406.24;1719874;82;21196;-77
2021/05/04 01:35:50;;;;;;;4.55;1.62;;;;;;;6.65;56.40;99409.75;1720644;82;21125;-76
2021/05/04 01:38:17;;;;;;;5.30;1.60;;;;;;;6.64;56.49;99410.80;1709510;82;21199;-75
2021/05/04 01:40:46;;;;;;;5.42;1.75;;;;;;;6.60;56.60;99408.82;1706693;84;21822;-75
2021/05/04 01:43:14;;;;;;;4.37;1.60;;;;;;;6.59;56.90;99409.88;1695946;83;21572;-73
2021/05/04 01:45:42;;;;;;;4.65;1.70;;;;;;;6.58;57.22;99415.04;1687284;85;21189;-73
2021/05/04 01:48:09;;;;;;;4.20;1.73;;;;;;;6.54;57.23;99414.69;1690062;83;21347;-73
2021/05/04 01:50:38;;;;;;;3.47;1.60;;;;;;;6.53;57.41;99415.74;1673410;83;21176;-78
2021/05/04 01:53:05;;;;;;;4.47;1.70;;;;;;;6.54;57.08;99412.50;1719625;82;21160;-80
2021/05/04 01:55:33;;;;;;;4.65;1.60;;;;;;;6.50;56.91;99413.53;1696641;83;21227;-72
2021/05/04 01:58:01;;;;;;;3.92;1.62;;;;;;;6.47;56.95;99408.58;1707772;82;21176;-73
2021/05/04 02:00:29;;;;;;;7.45;2.30;;;;;;;6.42;57.14;99416.63;1695578;83;21167;-80
2021/05/04 02:02:56;;;;;;;5.03;1.73;;;;;;;6.38;57.63;99422.24;1681214;83;21160;-73
2021/05/04 02:05:24;;;;;;;5.28;1.80;;;;;;;6.34;57.65;99418.38;1694913;83;21163;-74
2021/05/04 02:07:52;;;;;;;6.45;2.20;;;;;;;6.31;57.41;99419.67;1685082;85;21345;-78
2021/05/04 02:10:20;;;;;;;4.80;1.72;;;;;;;6.29;57.82;99418.27;1674415;82;21180;-73
2021/05/04 02:12:49;;;;;;;4.80;1.95;;;;;;;6.30;57.48;99418.02;1643831;86;21274;-72
2021/05/04 02:15:17;;;;;;;4.28;2.10;;;;;;;6.30;57.73;99426.69;1711549;82;21702;-74
2021/05/04 02:17:45;;;;;;;4.60;1.90;;;;;;;6.25;58.12;99424.70;1698493;84;21220;-79
2021/05/04 02:20:17;;;;;;;5.20;1.90;;;;;;;6.20;58.18;99420.52;1687015;83;21215;-80
2021/05/04 02:22:45;;;;;;;5.25;2.08;;;;;;;6.20;58.18;99420.52;1718239;83;21153;-79
2021/05/04 02:25:14;;;;;;;4.15;1.92;;;;;;;6.23;58.54;99430.92;1710954;82;21149;-80
2021/05/04 02:27:42;;;;;;;6.35;2.20;;;;;;;6.19;58.34;99432.48;1718668;83;21224;-75
2021/05/04 02:30:15;;;;;;;6.75;2.10;;;;;;;6.17;58.41;99437.86;1703790;82;21214;-75
2021/05/04 02:32:42;;;;;;;3.20;1.70;;;;;;;6.15;58.58;99435.89;1714330;83;21144;-82
2021/05/04 02:35:11;;;;;;;5.13;1.83;;;;;;;6.15;58.62;99437.25;1718805;82;21370;-82
2021/05/04 02:37:40;;;;;;;4.80;2.00;;;;;;;6.15;59.05;99436.72;1714533;83;21196;-81
2021/05/04 02:40:10;;;;;;;4.95;1.85;;;;;;;6.14;59.25;99431.54;1716011;82;21308;-82
2021/05/04 02:42:38;;;;;;;5.42;1.92;;;;;;;6.11;60.25;99442.88;1705894;84;21659;-76
2021/05/04 02:45:06;;;;;;;4.50;1.70;;;;;;;6.12;59.92;99441.83;1692747;83;21176;-79
2021/05/04 02:47:35;;;;;;;3.58;1.70;;;;;;;6.15;60.46;99444.04;1692791;83;21585;-77
2021/05/04 02:50:03;;;;;;;4.53;1.75;;;;;;;6.13;59.31;99450.25;1712383;82;21220;-81
2021/05/04 02:52:31;;;;;;;5.97;1.90;;;;;;;6.13;59.42;99459.77;1675436;83;21180;-79
2021/05/04 02:54:59;;;;;;;4.12;1.85;;;;;;;6.10;59.77;99458.88;1706637;82;21197;-78
2021/05/04 02:57:26;;;;;;;5.00;1.70;;;;;;;6.07;59.35;99458.02;1704829;83;21740;-72
2021/05/04 02:59:54;;;;;;;3.37;1.75;;;;;;;6.07;59.35;99458.02;1723233;83;21171;-72
2021/05/04 03:02:22;;;;;;;3.97;1.80;;;;;;;6.06;59.55;99462.63;1702835;82;21751;-77
2021/05/04 03:04:50;;;;;;;5.40;2.08;;;;;;;6.06;59.48;99461.78;1705120;83;21166;-79
2021/05/04 03:07:19;;;;;;;4.78;1.82;;;;;;;6.05;59.41;99470.46;1707021;82;21124;-76
2021/05/04 03:09:47;;;;;;;4.70;2.07;;;;;;;6.04;59.20;99472.07;1672002;84;21159;-76
2021/05/04 03:12:15;;;;;;;4.95;1.95;;;;;;;6.03;59.27;99469.05;1694257;82;21287;-76
2021/05/04 03:14:44;;;;;;;7.17;1.82;;;;;;;6.04;59.45;99466.64;1668474;82;21165;-77
2021/05/04 03:17:12;;;;;;;4.97;1.90;;;;;;;6.05;59.31;99478.61;1693863;82;21239;-73
2021/05/04 03:19:41;;;;;;;;;;;;;;;6.06;59.26;99469.94;1693341;84;21164;-80
2021/05/04 03:22:08;;;;;;;4.65;2.00;;;;;;;6.08;59.20;99474.59;1709373;82;20171;-78
2021/05/04 03:24:36;;;;;;;3.70;1.70;;;;;;;6.07;59.46;99476.48;1714699;82;21143;-79
2021/05/04 03:27:05;;;;;;;6.90;2.12;;;;;;;6.11;59.27;99479.56;1697373;84;21259;-78
2021/05/04 03:29:33;;;;;;;6.22;2.00;;;;;;;6.15;59.15;99487.52;1704536;83;21148;-76
2021/05/04 03:32:01;;;;;;;5.62;2.10;;;;;;;6.17;59.25;99490.84;1691946;84;21137;-75
2021/05/04 03:34:30;;;;;;;;;;;;;;;6.22;59.74;99493.67;1702051;83;21606;-76
2021/05/04 03:36:58;;;;;;;3.90;1.80;;;;;;;6.24;59.07;99492.89;1701977;83;20231;-77
2021/05/04 03:39:26;;;;;;;4.15;1.80;;;;;;;6.27;58.95;99493.78;1721284;82;21223;-76
2021/05/04 03:41:54;;;;;;;5.35;1.90;;;;;;;6.32;59.76;99502.04;1720749;83;21152;-79
2021/05/04 03:44:23;;;;;;;4.37;1.87;;;;;;;6.39;58.86;99505.45;1716038;82;21033;-78
2021/05/04 03:46:51;;;;;;;4.95;2.20;;;;;;;6.39;58.54;99502.20;1701043;84;21093;-78
2021/05/04 03:49:19;;;;;;;;;;;;;;;6.38;58.92;99514.13;1701836;82;21094;-77
2021/05/04 03:51:47;;;;;;;4.97;1.72;;;;;;;6.41;58.79;99514.18;1697351;84;20179;-77
2021/05/04 03:54:15;;;;;;;5.75;2.30;;;;;;;6.43;58.60;99513.40;1705175;82;21050;-78
2021/05/04 03:56:43;;;;;;;5.72;2.10;;;;;;;6.47;59.26;99515.95;1699660;84;21199;-77
2021/05/04 03:59:11;;;;;;;5.70;2.08;;;;;;;6.49;58.62;99521.13;1698994;82;21069;-78
2021/05/04 04:01:39;;;;;;;4.85;2.17;;;;;;;6.48;59.01;99528.45;1698737;82;21092;-78
2021/05/04 04:04:07;;;;;;;5.03;2.25;;;;;;;6.52;58.87;99534.25;1695868;84;21508;-77
2021/05/04 04:06:35;;;;;;;5.25;2.27;;;;;;;6.56;58.68;99528.09;1713002;82;21156;-77
2021/05/04 04:09:05;;;;;;;6.85;2.20;;;;;;;6.60;58.51;99533.36;1723764;83;21064;-77
2021/05/04 04:11:32;;;;;;;5.42;2.08;;;;;;;6.63;58.55;99524.70;1701025;83;21526;-78
2021/05/04 04:14:01;;;;;;;4.97;2.00;;;;;;;6.68;58.38;99534.31;1698273;84;21062;-77
2021/05/04 04:16:31;;;;;;;4.72;2.10;;;;;;;6.73;58.27;99535.78;1694969;83;21098;-78
2021/05/04 04:18:58;;;;;;;7.20;2.42;;;;;;;6.76;58.29;99537.19;1703754;84;21042;-78
2021/05/04 04:21:30;;;;;;;4.70;2.17;;;;;;;6.78;58.21;99545.41;1714608;82;21193;-89
2021/05/04 04:23:59;;;;;;;9.45;2.52;;;;;;;6.81;58.12;99535.94;1719135;83;21058;-80
2021/05/04 04:26:27;;;;;;;9.45;2.35;;;;;;;6.87;58.35;99533.63;1708846;82;21147;-82
2021/05/04 04:28:57;;;;;;;4.85;1.92;;;;;;;6.92;58.48;99538.63;1710690;83;21065;-78
2021/05/04 04:31:25;;;;;;;5.83;2.30;;;;;;;7.01;58.19;99537.69;1699094;83;21168;-77
2021/05/04 04:38:13;;;;;;;6.00;2.25;;;;;;;7.21;58.37;99542.72;1812470;77;22139;-74
2021/05/04 04:40:41;;;;;;;6.83;2.80;;;;;;;7.21;57.58;99548.96;1738050;81;21164;-75
2021/05/04 04:43:09;;;;;;;5.30;2.30;;;;;;;7.23;57.62;99544.13;1712748;80;21183;-76
2021/05/04 04:45:37;;;;;;;6.25;2.02;;;;;;;7.26;56.52;99553.70;1724264;80;21263;-74
2021/05/04 04:48:05;;;;;;;5.37;2.33;;;;;;;7.24;56.64;99553.09;1755267;80;21212;-75
2021/05/04 04:50:33;;;;;;;9.95;2.40;;;;;;;7.29;56.98;99554.55;1756440;81;21238;-74
2021/05/04 04:53:01;;;;;;;10.40;2.20;;;;;;;7.37;56.61;99545.98;1756310;80;21164;-75
2021/05/04 04:55:29;;;;;;;5.05;2.05;;;;;;;7.40;56.07;99543.61;1756076;81;21868;-74
2021/05/04 04:57:58;;;;;;;5.63;2.13;;;;;;;7.43;55.63;99555.38;1754408;80;21485;-80
2021/05/04 05:00:26;;;;;;;7.35;2.40;;;;;;;7.48;55.92;99550.56;1749444;80;21195;-79
2021/05/04 05:02:54;;;;;;;7.83;2.60;;;;;;;7.59;54.77;99549.64;1693460;83;21300;-79
2021/05/04 05:05:22;;;;;;;6.85;2.30;;;;;;;7.59;54.77;99549.64;1699040;83;21229;-80
2021/05/04 05:07:49;;;;;;;5.65;2.25;;;;;;;7.63;55.28;99546.73;1670935;84;21181;-79
2021/05/04 05:10:18;;;;;;;5.50;2.08;;;;;;;7.71;54.55;99538.16;1718184;82;21327;-76
2021/05/04 05:12:47;;;;;;;7.00;2.30;;;;;;;7.75;53.12;99547.47;1718495;83;21131;-76
2021/05/04 05:15:15;;;;;;;9.85;2.02;;;;;;;7.73;51.48;99533.28;1704142;82;21173;-83
2021/05/04 05:17:44;;;;;;;3.83;1.80;;;;;;;7.73;52.52;99540.62;1691625;85;21264;-77
2021/05/04 05:20:13;;;;;;;5.60;2.12;;;;;;;7.76;52.34;99538.24;1699645;83;21212;-77
2021/05/04 05:22:44;;;;;;;7.50;2.60;;;;;;;7.86;53.23;99545.22;1704760;84;21499;-77
2021/05/04 05:25:12;;;;;;;5.50;2.10;;;;;;;7.94;52.13;99538.53;1696141;83;21220;-76
2021/05/04 05:27:40;;;;;;;5.37;1.90;;;;;;;7.99;51.15;99548.97;1679619;84;21161;-82
2021/05/04 05:30:10;;;;;;;5.35;2.47;;;;;;;8.00;51.17;99554.69;1681093;83;21133;-79
2021/05/04 05:32:41;;;;;;;12.28;2.50;;;;;;;8.05;51.58;99557.50;1718437;83;21171;-76
2021/05/04 05:35:15;;;;;;;9.35;2.37;;;;;;;8.13;51.97;99563.06;1724720;82;21148;-78
2021/05/04 05:37:43;;;;;;;7.65;2.10;;;;;;;8.19;51.19;99559.36;1709379;84;21192;-78
2021/05/04 05:40:11;;;;;;;7.72;2.37;;;;;;;8.26;50.32;99573.13;1696192;82;21685;-77
2021/05/04 05:42:39;;;;;;;5.35;1.90;;;;;;;8.28;49.90;99573.70;1709988;82;21129;-80
2021/05/04 05:45:09;;;;;;;11.08;2.15;;;;;;;8.30;50.33;99568.81;1675675;82;21701;-77
2021/05/04 05:47:37;;;;;;;6.40;1.98;;;;;;;8.32;49.56;99582.21;1693387;83;21742;-76
2021/05/04 05:50:06;;;;;;;6.78;1.95;;;;;;;8.35;49.99;99578.16;1707655;83;21716;-78
2021/05/04 05:52:34;;;;;;;4.97;2.00;;;;;;;8.36;48.87;99574.34;1703488;83;21172;-78
2021/05/04 05:55:02;;;;;;;8.50;2.30;;;;;;;8.38;48.60;99569.45;1693743;83;21133;-76
2021/05/04 05:57:30;;;;;;;;;;;;;;;8.45;49.21;99565.47;1717002;83;21224;-76
2021/05/04 05:59:58;;;;;;;4.43;1.97;;;;;;;8.53;48.30;99560.13;1718275;82;20188;-77
2021/05/04 06:02:26;;;;;;;5.03;2.10;;;;;;;8.57;47.72;99553.11;1704383;83;21299;-79
2021/05/04 06:04:54;;;;;;;5.33;1.92;;;;;;;8.60;48.53;99563.52;1707713;82;21819;-76
2021/05/04 06:07:22;;;;;;;5.42;1.80;;;;;;;8.69;48.81;99559.27;1672311;83;21615;-77
2021/05/04 06:09:51;;;;;;;7.60;1.98;;;;;;;8.78;46.12;99556.36;1670403;84;21442;-79
2021/05/04 06:12:19;;;;;;;4.97;1.77;;;;;;;8.78;46.12;99556.36;1675992;83;21209;-77
2021/05/04 06:14:47;;;;;;;5.55;2.00;;;;;;;8.82;45.69;99552.06;1677410;83;21718;-76
2021/05/04 06:17:15;;;;;;;5.70;1.60;;;;;;;8.83;45.95;99555.89;1698548;83;21167;-77
2021/05/04 06:19:44;;;;;;;4.33;1.67;;;;;;;8.85;45.81;99547.47;1664357;83;21180;-76
2021/05/04 06:22:12;;;;;;;8.63;1.82;;;;;;;8.88;46.33;99549.66;1692303;83;21207;-75
2021/05/04 06:24:43;;;;;;;5.17;1.77;;;;;;;9.00;46.47;99559.10;1663801;85;21912;-75
2021/05/04 06:27:11;;;;;;;8.13;2.22;;;;;;;9.08;45.11;99565.48;1721771;82;21176;-76
2021/05/04 06:29:41;;;;;;;5.28;2.08;;;;;;;9.11;44.71;99553.49;1719584;82;21729;-76
2021/05/04 06:32:10;;;;;;;6.67;2.30;;;;;;;9.14;44.91;99558.45;1721688;83;21137;-78
2021/05/04 06:34:39;;;;;;;8.20;1.90;;;;;;;9.19;44.47;99561.23;1720766;82;21227;-77
2021/05/04 06:37:07;;;;;;;4.28;1.70;;;;;;;9.25;44.32;99556.66;1693571;83;21152;-78
2021/05/04 06:39:36;;;;;;;;;;;;;;;9.29;44.39;99550.42;1697247;83;21185;-75
2021/05/04 06:42:05;;;;;;;7.25;1.92;;;;;;;9.34;45.16;99554.56;1690731;83;20610;-78
2021/05/04 06:44:33;;;;;;;5.35;1.82;;;;;;;9.43;44.76;99554.41;1689613;83;21651;-76
2021/05/04 06:47:03;;;;;;;5.78;1.87;;;;;;;9.51;45.47;99553.91;1707461;82;21209;-76
2021/05/04 06:49:31;;;;;;;6.80;1.70;;;;;;;9.53;44.65;99559.97;1699944;83;21172;-76
2021/05/04 06:51:59;;;;;;;9.73;1.65;;;;;;;9.59;44.53;99554.81;1667792;83;21711;-77
2021/05/04 06:54:28;;;;;;;4.75;1.70;;;;;;;9.65;43.19;99552.13;1669461;83;21222;-77
2021/05/04 06:56:55;;;;;;;5.55;1.60;;;;;;;9.71;43.90;99554.66;1668369;83;21656;-76
2021/05/04 06:59:24;;;;;;;7.58;1.60;;;;;;;9.75;42.83;99550.85;1673295;83;21168;-75
2021/05/04 07:01:52;;;;;;;4.67;2.00;;;;;;;9.78;42.35;99557.17;1689753;84;21613;-80
2021/05/04 07:04:20;;;;;;;6.83;1.82;;;;;;;9.79;42.35;99557.47;1667535;83;21387;-79
2021/05/04 07:06:48;;;;;;;5.92;1.80;;;;;;;9.81;42.13;99553.92;1708938;83;21132;-78
2021/05/04 07:09:16;;;;;;;7.35;1.80;;;;;;;9.86;42.73;99552.59;1694377;83;21666;-79
2021/05/04 07:11:45;;;;;;;7.83;1.82;;;;;;;9.93;41.24;99577.80;1676032;83;21153;-79
2021/05/04 07:14:13;;;;;;;9.15;2.08;;;;;;;9.98;42.18;99576.47;1690925;83;21593;-77
2021/05/04 07:16:41;;;;;;;5.53;1.87;;;;;;;9.99;42.27;99566.63;1687257;83;21176;-77
2021/05/04 07:19:09;;;;;;;8.20;2.02;;;;;;;10.03;42.29;99573.78;1704971;83;21180;-78
2021/05/04 07:21:37;;;;;;;4.78;1.42;;;;;;;10.09;42.92;99566.70;1678174;84;21625;-79
2021/05/04 07:24:08;;;;;;;8.15;2.60;;;;;;;10.15;41.24;99569.81;1695118;84;21141;-77
2021/05/04 07:26:39;;;;;;;5.78;2.85;;;;;;;10.23;42.89;99579.97;1668374;83;21659;-77
2021/05/04 07:29:09;;;;;;;5.80;1.90;;;;;;;10.31;43.45;99566.64;1683185;84;21157;-78
2021/05/04 07:31:38;;;;;;;6.90;1.70;;;;;;;10.41;42.46;99585.86;1700954;83;21134;-80
2021/05/04 07:34:06;;;;;;;;;;;;;;;10.32;42.34;99577.88;1699497;83;21740;-82
2021/05/04 07:36:34;;;;;;;6.37;2.20;;;;;;;10.25;41.44;99577.25;1702953;83;20510;-77
2021/05/04 07:39:02;;;;;;;6.03;1.85;;;;;;;10.28;42.57;99570.44;1717333;83;21231;-78
2021/05/04 07:41:30;;;;;;;7.50;1.70;;;;;;;10.36;43.04;99578.16;1686825;83;21581;-77
2021/05/04 07:43:59;;;;;;;8.93;2.75;;;;;;;10.41;41.98;99583.66;1710269;83;21161;-77
2021/05/04 07:46:27;;;;;;;6.70;3.08;;;;;;;10.43;41.02;99578.74;1705830;83;21321;-77
2021/05/04 07:48:57;;;;;;;7.12;2.33;;;;;;;10.46;41.05;99569.47;1694760;83;21220;-77
2021/05/04 07:51:26;;;;;;;8.05;2.10;;;;;;;10.55;42.12;99575.28;1695323;84;21133;-79
2021/05/04 07:53:55;;;;;;;6.97;1.90;;;;;;;10.65;40.48;99569.30;1680621;83;21743;-80
2021/05/04 07:58:58;;;;;;;7.22;1.72;;;;;;;10.73;37.66;99579.75;1816734;77;25280;-78
2021/05/04 08:01:26;;;;;;;8.68;1.82;;;;;;;10.68;37.25;99574.25;1756824;80;21154;-78
2021/05/04 08:03:54;;;;;;;4.62;1.57;;;;;;;10.71;38.26;99572.35;1751778;80;21152;-78
2021/05/04 08:06:22;;;;;;;6.03;2.17;;;;;;;10.75;38.36;99567.98;1750382;81;21215;-77
2021/05/04 08:08:51;;;;;;;5.42;1.75;;;;;;;10.80;39.02;99575.42;1756229;80;21782;-77
2021/05/04 08:11:19;;;;;;;4.47;1.63;;;;;;;10.81;37.82;99576.51;1762014;80;21141;-80
2021/05/04 08:13:47;;;;;;;8.45;1.98;;;;;;;10.75;37.61;99574.83;1746884;80;21838;-80
2021/05/04 08:16:16;;;;;;;10.20;1.90;;;;;;;10.77;38.40;99569.93;1763548;80;21105;-79
2021/05/04 08:18:47;;;;;;;9.50;2.00;;;;;;;10.91;36.84;99573.52;1744532;80;21133;-79
2021/05/04 08:21:14;;;;;;;8.20;1.87;;;;;;;11.04;36.74;99589.47;1750685;81;21190;-79
2021/05/04 08:23:44;;;;;;;14.58;2.17;;;;;;;11.14;36.70;99575.81;1746345;80;21838;-78
2021/05/04 08:26:13;;;;;;;5.83;1.72;;;;;;;11.25;35.18;99580.25;1692238;83;21175;-77
2021/05/04 08:28:41;;;;;;;7.62;1.80;;;;;;;11.25;34.43;99587.09;1694893;84;21171;-78
2021/05/04 08:31:10;;;;;;;6.65;1.60;;;;;;;11.23;35.44;99587.92;1697835;83;21166;-79
2021/05/04 08:33:37;;;;;;;5.67;1.77;;;;;;;11.27;35.02;99586.27;1709139;83;21238;-80
2021/05/04 08:36:05;;;;;;;7.10;1.77;;;;;;;11.32;34.62;99578.06;1692663;83;21602;-81
2021/05/04 08:38:34;;;;;;;6.00;1.77;;;;;;;11.38;35.45;99588.77;1701407;83;21189;-79
2021/05/04 08:41:02;;;;;;;7.15;1.90;;;;;;;11.52;35.71;99579.48;1692430;83;21190;-76
2021/05/04 08:43:32;;;;;;;8.30;2.20;;;;;;;11.61;34.48;99573.77;1661162;84;21185;-80
2021/05/04 08:46:01;;;;;;;6.17;1.90;;;;;;;11.68;34.51;99582.58;1691327;83;21622;-76
2021/05/04 08:48:29;;;;;;;7.17;1.60;;;;;;;11.72;33.89;99581.46;1695097;83;21209;-78
2021/05/04 08:50:59;;;;;;;11.15;2.30;;;;;;;11.66;33.64;99576.52;1693678;83;21171;-77
2021/05/04 08:53:30;;;;;;;3.37;1.52;;;;;;;11.68;34.81;99575.72;1660864;85;21184;-78
2021/05/04 08:55:57;;;;;;;8.75;2.08;;;;;;;11.70;33.93;99572.16;1687542;83;21238;-77
2021/05/04 08:58:26;;;;;;;5.50;1.43;;;;;;;11.73;33.58;99562.56;1688151;84;21437;-76
2021/05/04 09:00:56;;;;;;;6.75;1.80;;;;;;;11.78;33.37;99563.94;1687384;83;21391;-77
2021/05/04 09:03:38;;;;;;;6.80;1.42;;;;;;;11.85;33.51;99576.83;1692623;83;21214;-79
2021/05/04 09:06:09;;;;;;;5.33;1.50;;;;;;;11.91;34.49;99566.14;1677959;83;21404;-78
2021/05/04 09:08:40;;;;;;;2.87;1.27;;;;;;;11.91;33.56;99576.57;1713024;83;21715;-79
2021/05/04 09:14:25;;;;;;;4.55;1.52;;;;;;;11.92;33.96;99581.48;1692841;85;21149;-76
2021/05/04 09:22:38;;;;;;;3.77;1.32;;;;;;;12.18;33.64;99569.97;1607212;88;21707;-74
2021/05/04 09:25:27;;;;;;;8.35;1.40;;;;;;;12.18;33.64;99553.50;1607430;89;21209;-78
2021/05/04 09:28:06;;;;;;;9.50;1.60;;;;;;;12.24;33.65;99562.84;1657320;83;21612;-79
2021/05/04 09:33:52;;;;;;;10.13;1.45;;;;;;;12.43;33.42;99565.81;1810901;77;22159;-79
2021/05/04 09:36:49;;;;;;;7.50;1.42;;;;;;;12.43;33.63;99565.81;1749741;81;21128;-78
2021/05/04 09:39:28;;;;;;;5.90;1.40;;;;;;;12.51;34.17;99557.02;1745088;80;21150;-78
2021/05/04 09:41:59;;;;;;;9.20;1.80;;;;;;;12.51;33.83;99552.91;1743710;80;21187;-78
2021/05/04 09:44:41;;;;;;;4.28;1.60;;;;;;;12.53;35.04;99561.67;1746294;80;21271;-78
